sensor_id;sensor_type;location;lat;lon;timestamp;pressure;altitude;pressure_sealevel;temperature
37536;BMP180;23379;51.554;6.736;2022-07-04T00:02:06;101498.00;;;15.10
37536;BMP180;23379;51.554;6.736;2022-07-04T00:04:31;101507.00;;;15.00
37536;BMP180;23379;51.554;6.736;2022-07-04T00:06:56;101509.00;;;15.00
37536;BMP180;23379;51.554;6.736;2022-07-04T00:09:22;101507.00;;;14.90
37536;BMP180;23379;51.554;6.736;2022-07-04T00:11:47;101500.00;;;14.90
37536;BMP180;23379;51.554;6.736;2022-07-04T00:14:13;101508.00;;;15.00
37536;BMP180;23379;51.554;6.736;2022-07-04T00:16:38;101488.00;;;14.80
37536;BMP180;23379;51.554;6.736;2022-07-04T00:19:03;101510.00;;;14.90
37536;BMP180;23379;51.554;6.736;2022-07-04T00:21:29;101503.00;;;14.90
37536;BMP180;23379;51.554;6.736;2022-07-04T00:23:54;101495.00;;;14.90
37536;BMP180;23379;51.554;6.736;2022-07-04T00:26:20;101499.00;;;14.70
37536;BMP180;23379;51.554;6.736;2022-07-04T00:28:45;101496.00;;;14.60
37536;BMP180;23379;51.554;6.736;2022-07-04T00:31:10;101486.00;;;14.60
37536;BMP180;23379;51.554;6.736;2022-07-04T00:33:36;101481.00;;;14.40
37536;BMP180;23379;51.554;6.736;2022-07-04T00:36:01;101488.00;;;14.60
37536;BMP180;23379;51.554;6.736;2022-07-04T00:38:27;101477.00;;;14.50
37536;BMP180;23379;51.554;6.736;2022-07-04T00:40:52;101485.00;;;14.50
37536;BMP180;23379;51.554;6.736;2022-07-04T00:43:25;101491.00;;;14.30
37536;BMP180;23379;51.554;6.736;2022-07-04T00:45:51;101491.00;;;14.20
37536;BMP180;23379;51.554;6.736;2022-07-04T00:48:17;101475.00;;;14.30
37536;BMP180;23379;51.554;6.736;2022-07-04T00:50:45;101490.00;;;14.30
37536;BMP180;23379;51.554;6.736;2022-07-04T00:53:12;101479.00;;;14.40
37536;BMP180;23379;51.554;6.736;2022-07-04T00:55:38;101474.00;;;14.20
37536;BMP180;23379;51.554;6.736;2022-07-04T00:58:04;101488.00;;;14.30
37536;BMP180;23379;51.554;6.736;2022-07-04T01:00:30;101463.00;;;14.20
37536;BMP180;23379;51.554;6.736;2022-07-04T01:02:55;101494.00;;;14.10
37536;BMP180;23379;51.554;6.736;2022-07-04T01:05:21;101487.00;;;14.00
37536;BMP180;23379;51.554;6.736;2022-07-04T01:07:46;101492.00;;;14.20
37536;BMP180;23379;51.554;6.736;2022-07-04T01:10:12;101470.00;;;14.10
37536;BMP180;23379;51.554;6.736;2022-07-04T01:12:38;101492.00;;;14.10
37536;BMP180;23379;51.554;6.736;2022-07-04T01:15:05;101485.00;;;14.00
37536;BMP180;23379;51.554;6.736;2022-07-04T01:17:30;101471.00;;;14.00
37536;BMP180;23379;51.554;6.736;2022-07-04T01:19:56;101479.00;;;14.00
37536;BMP180;23379;51.554;6.736;2022-07-04T01:22:21;101464.00;;;14.00
37536;BMP180;23379;51.554;6.736;2022-07-04T01:24:48;101465.00;;;13.90
37536;BMP180;23379;51.554;6.736;2022-07-04T01:27:14;101469.00;;;13.90
37536;BMP180;23379;51.554;6.736;2022-07-04T01:29:40;101463.00;;;13.80
37536;BMP180;23379;51.554;6.736;2022-07-04T01:32:07;101424.00;;;13.90
37536;BMP180;23379;51.554;6.736;2022-07-04T01:34:32;101442.00;;;13.90
37536;BMP180;23379;51.554;6.736;2022-07-04T01:36:59;101460.00;;;13.80
37536;BMP180;23379;51.554;6.736;2022-07-04T01:39:24;101463.00;;;13.80
37536;BMP180;23379;51.554;6.736;2022-07-04T01:41:49;101473.00;;;13.60
37536;BMP180;23379;51.554;6.736;2022-07-04T01:44:15;101461.00;;;13.50
37536;BMP180;23379;51.554;6.736;2022-07-04T01:46:40;101462.00;;;13.60
37536;BMP180;23379;51.554;6.736;2022-07-04T01:49:06;101471.00;;;13.60
37536;BMP180;23379;51.554;6.736;2022-07-04T01:51:31;101452.00;;;13.60
37536;BMP180;23379;51.554;6.736;2022-07-04T01:53:56;101471.00;;;13.80
37536;BMP180;23379;51.554;6.736;2022-07-04T01:56:22;101458.00;;;13.70
37536;BMP180;23379;51.554;6.736;2022-07-04T01:58:47;101447.00;;;13.60
37536;BMP180;23379;51.554;6.736;2022-07-04T02:01:12;101452.00;;;13.60
37536;BMP180;23379;51.554;6.736;2022-07-04T02:03:57;101441.00;;;13.70
37536;BMP180;23379;51.554;6.736;2022-07-04T02:06:23;101464.00;;;13.50
37536;BMP180;23379;51.554;6.736;2022-07-04T02:08:48;101466.00;;;13.50
37536;BMP180;23379;51.554;6.736;2022-07-04T02:11:33;101468.00;;;13.20
37536;BMP180;23379;51.554;6.736;2022-07-04T02:14:18;101469.00;;;13.30
37536;BMP180;23379;51.554;6.736;2022-07-04T02:16:44;101472.00;;;13.30
37536;BMP180;23379;51.554;6.736;2022-07-04T02:19:10;101458.00;;;13.40
37536;BMP180;23379;51.554;6.736;2022-07-04T02:21:35;101460.00;;;13.30
37536;BMP180;23379;51.554;6.736;2022-07-04T02:24:00;101464.00;;;13.30
37536;BMP180;23379;51.554;6.736;2022-07-04T02:26:26;101447.00;;;13.10
37536;BMP180;23379;51.554;6.736;2022-07-04T02:28:52;101467.00;;;13.20
37536;BMP180;23379;51.554;6.736;2022-07-04T02:31:17;101463.00;;;13.10
37536;BMP180;23379;51.554;6.736;2022-07-04T02:33:43;101452.00;;;13.20
37536;BMP180;23379;51.554;6.736;2022-07-04T02:36:08;101461.00;;;13.30
37536;BMP180;23379;51.554;6.736;2022-07-04T02:38:34;101474.00;;;13.30
37536;BMP180;23379;51.554;6.736;2022-07-04T02:40:59;101472.00;;;13.30
37536;BMP180;23379;51.554;6.736;2022-07-04T02:43:24;101477.00;;;13.10
37536;BMP180;23379;51.554;6.736;2022-07-04T02:45:50;101475.00;;;13.20
37536;BMP180;23379;51.554;6.736;2022-07-04T02:48:15;101470.00;;;13.20
37536;BMP180;23379;51.554;6.736;2022-07-04T02:50:40;101456.00;;;12.90
37536;BMP180;23379;51.554;6.736;2022-07-04T02:53:06;101490.00;;;13.10
37536;BMP180;23379;51.554;6.736;2022-07-04T02:55:31;101480.00;;;13.10
37536;BMP180;23379;51.554;6.736;2022-07-04T02:57:56;101490.00;;;13.20
37536;BMP180;23379;51.554;6.736;2022-07-04T03:00:22;101478.00;;;13.20
37536;BMP180;23379;51.554;6.736;2022-07-04T03:02:47;101486.00;;;13.10
37536;BMP180;23379;51.554;6.736;2022-07-04T03:05:13;101491.00;;;13.00
37536;BMP180;23379;51.554;6.736;2022-07-04T03:07:38;101491.00;;;13.10
37536;BMP180;23379;51.554;6.736;2022-07-04T03:10:04;101486.00;;;12.90
37536;BMP180;23379;51.554;6.736;2022-07-04T03:12:29;101488.00;;;13.00
37536;BMP180;23379;51.554;6.736;2022-07-04T03:14:55;101500.00;;;12.90
37536;BMP180;23379;51.554;6.736;2022-07-04T03:17:20;101522.00;;;12.90
37536;BMP180;23379;51.554;6.736;2022-07-04T03:19:46;101499.00;;;13.10
37536;BMP180;23379;51.554;6.736;2022-07-04T03:22:12;101485.00;;;12.90
37536;BMP180;23379;51.554;6.736;2022-07-04T03:24:37;101509.00;;;12.90
37536;BMP180;23379;51.554;6.736;2022-07-04T03:27:03;101524.00;;;12.80
37536;BMP180;23379;51.554;6.736;2022-07-04T03:29:28;101529.00;;;12.70
37536;BMP180;23379;51.554;6.736;2022-07-04T03:31:53;101517.00;;;12.80
37536;BMP180;23379;51.554;6.736;2022-07-04T03:34:19;101522.00;;;12.80
37536;BMP180;23379;51.554;6.736;2022-07-04T03:36:45;101524.00;;;13.00
37536;BMP180;23379;51.554;6.736;2022-07-04T03:39:10;101522.00;;;12.90
37536;BMP180;23379;51.554;6.736;2022-07-04T03:41:35;101512.00;;;12.70
37536;BMP180;23379;51.554;6.736;2022-07-04T03:44:02;101508.00;;;12.80
37536;BMP180;23379;51.554;6.736;2022-07-04T03:46:27;101503.00;;;12.60
37536;BMP180;23379;51.554;6.736;2022-07-04T03:48:52;101529.00;;;12.90
37536;BMP180;23379;51.554;6.736;2022-07-04T03:51:18;101526.00;;;13.10
37536;BMP180;23379;51.554;6.736;2022-07-04T03:53:44;101525.00;;;13.10
37536;BMP180;23379;51.554;6.736;2022-07-04T03:56:09;101527.00;;;13.00
37536;BMP180;23379;51.554;6.736;2022-07-04T03:58:35;101537.00;;;13.20
37536;BMP180;23379;51.554;6.736;2022-07-04T04:01:00;101529.00;;;13.10
37536;BMP180;23379;51.554;6.736;2022-07-04T04:03:26;101531.00;;;13.10
37536;BMP180;23379;51.554;6.736;2022-07-04T04:06:10;101549.00;;;13.20
37536;BMP180;23379;51.554;6.736;2022-07-04T04:08:35;101541.00;;;13.30
37536;BMP180;23379;51.554;6.736;2022-07-04T04:11:00;101545.00;;;13.20
37536;BMP180;23379;51.554;6.736;2022-07-04T04:13:26;101511.00;;;13.30
37536;BMP180;23379;51.554;6.736;2022-07-04T04:15:51;101558.00;;;13.40
37536;BMP180;23379;51.554;6.736;2022-07-04T04:18:17;101545.00;;;13.40
37536;BMP180;23379;51.554;6.736;2022-07-04T04:20:42;101535.00;;;13.50
37536;BMP180;23379;51.554;6.736;2022-07-04T04:23:07;101542.00;;;13.40
37536;BMP180;23379;51.554;6.736;2022-07-04T04:25:33;101539.00;;;13.70
37536;BMP180;23379;51.554;6.736;2022-07-04T04:27:58;101554.00;;;13.80
37536;BMP180;23379;51.554;6.736;2022-07-04T04:30:23;101533.00;;;14.40
37536;BMP180;23379;51.554;6.736;2022-07-04T04:32:49;101529.00;;;14.70
37536;BMP180;23379;51.554;6.736;2022-07-04T04:35:15;101542.00;;;15.50
37536;BMP180;23379;51.554;6.736;2022-07-04T04:37:40;101540.00;;;15.90
37536;BMP180;23379;51.554;6.736;2022-07-04T04:40:06;101552.00;;;16.40
37536;BMP180;23379;51.554;6.736;2022-07-04T04:42:32;101539.00;;;17.00
37536;BMP180;23379;51.554;6.736;2022-07-04T04:44:57;101547.00;;;17.90
37536;BMP180;23379;51.554;6.736;2022-07-04T04:47:22;101531.00;;;18.50
37536;BMP180;23379;51.554;6.736;2022-07-04T04:49:48;101543.00;;;18.30
37536;BMP180;23379;51.554;6.736;2022-07-04T04:52:14;101534.00;;;18.30
37536;BMP180;23379;51.554;6.736;2022-07-04T04:54:39;101559.00;;;18.30
37536;BMP180;23379;51.554;6.736;2022-07-04T04:57:05;101564.00;;;18.00
37536;BMP180;23379;51.554;6.736;2022-07-04T04:59:31;101577.00;;;18.10
37536;BMP180;23379;51.554;6.736;2022-07-04T05:01:58;101565.00;;;17.50
37536;BMP180;23379;51.554;6.736;2022-07-04T05:04:24;101569.00;;;17.60
37536;BMP180;23379;51.554;6.736;2022-07-04T05:06:49;101581.00;;;17.50
37536;BMP180;23379;51.554;6.736;2022-07-04T05:09:15;101568.00;;;17.00
37536;BMP180;23379;51.554;6.736;2022-07-04T05:11:40;101564.00;;;16.60
37536;BMP180;23379;51.554;6.736;2022-07-04T05:14:06;101557.00;;;16.50
37536;BMP180;23379;51.554;6.736;2022-07-04T05:16:31;101571.00;;;16.60
37536;BMP180;23379;51.554;6.736;2022-07-04T05:18:57;101572.00;;;16.40
37536;BMP180;23379;51.554;6.736;2022-07-04T05:21:22;101573.00;;;16.60
37536;BMP180;23379;51.554;6.736;2022-07-04T05:23:48;101571.00;;;16.30
37536;BMP180;23379;51.554;6.736;2022-07-04T05:26:13;101572.00;;;16.40
37536;BMP180;23379;51.554;6.736;2022-07-04T05:28:38;101574.00;;;16.20
37536;BMP180;23379;51.554;6.736;2022-07-04T05:31:04;101581.00;;;16.20
37536;BMP180;23379;51.554;6.736;2022-07-04T05:33:29;101568.00;;;16.40
37536;BMP180;23379;51.554;6.736;2022-07-04T05:35:54;101580.00;;;17.00
37536;BMP180;23379;51.554;6.736;2022-07-04T05:38:20;101573.00;;;17.60
37536;BMP180;23379;51.554;6.736;2022-07-04T05:40:45;101588.00;;;18.30
37536;BMP180;23379;51.554;6.736;2022-07-04T05:43:11;101591.00;;;18.20
37536;BMP180;23379;51.554;6.736;2022-07-04T05:45:37;101586.00;;;17.80
37536;BMP180;23379;51.554;6.736;2022-07-04T05:48:02;101581.00;;;17.70
37536;BMP180;23379;51.554;6.736;2022-07-04T05:50:28;101596.00;;;17.70
37536;BMP180;23379;51.554;6.736;2022-07-04T05:52:53;101595.00;;;17.80
37536;BMP180;23379;51.554;6.736;2022-07-04T05:55:19;101587.00;;;17.90
37536;BMP180;23379;51.554;6.736;2022-07-04T05:57:44;101576.00;;;17.90
37536;BMP180;23379;51.554;6.736;2022-07-04T06:00:11;101567.00;;;17.80
37536;BMP180;23379;51.554;6.736;2022-07-04T06:02:37;101562.00;;;17.60
37536;BMP180;23379;51.554;6.736;2022-07-04T06:05:02;101589.00;;;17.40
37536;BMP180;23379;51.554;6.736;2022-07-04T06:07:28;101574.00;;;17.30
37536;BMP180;23379;51.554;6.736;2022-07-04T06:09:53;101579.00;;;16.90
37536;BMP180;23379;51.554;6.736;2022-07-04T06:12:19;101573.00;;;17.20
37536;BMP180;23379;51.554;6.736;2022-07-04T06:14:44;101553.00;;;17.20
37536;BMP180;23379;51.554;6.736;2022-07-04T06:17:11;101569.00;;;16.70
37536;BMP180;23379;51.554;6.736;2022-07-04T06:19:36;101560.00;;;17.20
37536;BMP180;23379;51.554;6.736;2022-07-04T06:22:02;101579.00;;;17.70
37536;BMP180;23379;51.554;6.736;2022-07-04T06:24:28;101559.00;;;18.00
37536;BMP180;23379;51.554;6.736;2022-07-04T06:26:54;101578.00;;;17.90
37536;BMP180;23379;51.554;6.736;2022-07-04T06:29:19;101563.00;;;18.10
37536;BMP180;23379;51.554;6.736;2022-07-04T06:31:45;101550.00;;;17.90
37536;BMP180;23379;51.554;6.736;2022-07-04T06:34:10;101578.00;;;17.80
37536;BMP180;23379;51.554;6.736;2022-07-04T06:36:54;101564.00;;;18.00
37536;BMP180;23379;51.554;6.736;2022-07-04T06:39:19;101573.00;;;18.30
37536;BMP180;23379;51.554;6.736;2022-07-04T06:41:45;101563.00;;;17.80
37536;BMP180;23379;51.554;6.736;2022-07-04T06:44:10;101561.00;;;18.10
37536;BMP180;23379;51.554;6.736;2022-07-04T06:46:36;101565.00;;;17.90
37536;BMP180;23379;51.554;6.736;2022-07-04T06:49:01;101569.00;;;18.30
37536;BMP180;23379;51.554;6.736;2022-07-04T06:51:26;101574.00;;;19.10
37536;BMP180;23379;51.554;6.736;2022-07-04T06:53:52;101562.00;;;18.60
37536;BMP180;23379;51.554;6.736;2022-07-04T06:56:18;101587.00;;;18.10
37536;BMP180;23379;51.554;6.736;2022-07-04T06:58:44;101582.00;;;17.80
37536;BMP180;23379;51.554;6.736;2022-07-04T07:01:09;101563.00;;;17.80
37536;BMP180;23379;51.554;6.736;2022-07-04T07:03:35;101585.00;;;17.70
37536;BMP180;23379;51.554;6.736;2022-07-04T07:06:01;101564.00;;;18.20
37536;BMP180;23379;51.554;6.736;2022-07-04T07:08:28;101584.00;;;18.30
37536;BMP180;23379;51.554;6.736;2022-07-04T07:10:55;101578.00;;;18.50
37536;BMP180;23379;51.554;6.736;2022-07-04T07:13:20;101575.00;;;18.40
37536;BMP180;23379;51.554;6.736;2022-07-04T07:15:46;101578.00;;;18.30
37536;BMP180;23379;51.554;6.736;2022-07-04T07:18:11;101581.00;;;18.40
37536;BMP180;23379;51.554;6.736;2022-07-04T07:20:36;101575.00;;;18.50
37536;BMP180;23379;51.554;6.736;2022-07-04T07:23:03;101603.00;;;18.60
37536;BMP180;23379;51.554;6.736;2022-07-04T07:25:29;101579.00;;;18.90
37536;BMP180;23379;51.554;6.736;2022-07-04T07:27:55;101577.00;;;19.10
37536;BMP180;23379;51.554;6.736;2022-07-04T07:30:20;101576.00;;;19.20
37536;BMP180;23379;51.554;6.736;2022-07-04T07:32:46;101569.00;;;19.10
37536;BMP180;23379;51.554;6.736;2022-07-04T07:35:11;101584.00;;;19.30
37536;BMP180;23379;51.554;6.736;2022-07-04T07:37:37;101572.00;;;19.50
37536;BMP180;23379;51.554;6.736;2022-07-04T07:40:03;101585.00;;;20.00
37536;BMP180;23379;51.554;6.736;2022-07-04T07:42:28;101571.00;;;20.00
37536;BMP180;23379;51.554;6.736;2022-07-04T07:44:54;101559.00;;;20.10
37536;BMP180;23379;51.554;6.736;2022-07-04T07:47:19;101578.00;;;20.30
37536;BMP180;23379;51.554;6.736;2022-07-04T07:49:45;101567.00;;;20.40
37536;BMP180;23379;51.554;6.736;2022-07-04T07:52:13;101565.00;;;20.50
37536;BMP180;23379;51.554;6.736;2022-07-04T07:54:38;101564.00;;;20.80
37536;BMP180;23379;51.554;6.736;2022-07-04T07:57:04;101559.00;;;20.90
37536;BMP180;23379;51.554;6.736;2022-07-04T07:59:29;101568.00;;;20.60
37536;BMP180;23379;51.554;6.736;2022-07-04T08:01:54;101566.00;;;21.10
37536;BMP180;23379;51.554;6.736;2022-07-04T08:04:20;101558.00;;;21.40
37536;BMP180;23379;51.554;6.736;2022-07-04T08:07:05;101574.00;;;21.30
37536;BMP180;23379;51.554;6.736;2022-07-04T08:09:32;101570.00;;;21.50
37536;BMP180;23379;51.554;6.736;2022-07-04T08:11:58;101567.00;;;21.70
37536;BMP180;23379;51.554;6.736;2022-07-04T08:14:24;101549.00;;;22.70
37536;BMP180;23379;51.554;6.736;2022-07-04T08:16:50;101558.00;;;23.90
37536;BMP180;23379;51.554;6.736;2022-07-04T08:19:15;101556.00;;;23.80
37536;BMP180;23379;51.554;6.736;2022-07-04T08:21:40;101571.00;;;24.20
37536;BMP180;23379;51.554;6.736;2022-07-04T08:24:06;101556.00;;;25.10
37536;BMP180;23379;51.554;6.736;2022-07-04T08:26:32;101560.00;;;25.50
37536;BMP180;23379;51.554;6.736;2022-07-04T08:28:57;101567.00;;;27.20
37536;BMP180;23379;51.554;6.736;2022-07-04T08:31:24;101578.00;;;27.30
37536;BMP180;23379;51.554;6.736;2022-07-04T08:33:51;101578.00;;;27.70
37536;BMP180;23379;51.554;6.736;2022-07-04T08:36:16;101579.00;;;26.80
37536;BMP180;23379;51.554;6.736;2022-07-04T08:38:42;101575.00;;;27.30
37536;BMP180;23379;51.554;6.736;2022-07-04T08:41:07;101581.00;;;28.20
37536;BMP180;23379;51.554;6.736;2022-07-04T08:43:32;101580.00;;;28.20
37536;BMP180;23379;51.554;6.736;2022-07-04T08:46:00;101571.00;;;29.60
37536;BMP180;23379;51.554;6.736;2022-07-04T08:48:28;101585.00;;;29.60
37536;BMP180;23379;51.554;6.736;2022-07-04T08:50:56;101593.00;;;27.90
37536;BMP180;23379;51.554;6.736;2022-07-04T08:53:28;101586.00;;;29.00
37536;BMP180;23379;51.554;6.736;2022-07-04T08:55:55;101584.00;;;28.70
37536;BMP180;23379;51.554;6.736;2022-07-04T08:58:39;101585.00;;;30.10
37536;BMP180;23379;51.554;6.736;2022-07-04T09:01:09;101594.00;;;27.80
37536;BMP180;23379;51.554;6.736;2022-07-04T09:03:43;101594.00;;;28.50
37536;BMP180;23379;51.554;6.736;2022-07-04T09:06:10;101590.00;;;28.50
37536;BMP180;23379;51.554;6.736;2022-07-04T09:08:37;101590.00;;;28.80
37536;BMP180;23379;51.554;6.736;2022-07-04T09:11:03;101589.00;;;28.80
37536;BMP180;23379;51.554;6.736;2022-07-04T09:13:30;101584.00;;;30.30
37536;BMP180;23379;51.554;6.736;2022-07-04T09:15:55;101579.00;;;29.50
37536;BMP180;23379;51.554;6.736;2022-07-04T09:18:30;101587.00;;;29.70
37536;BMP180;23379;51.554;6.736;2022-07-04T09:20:58;101569.00;;;29.70
37536;BMP180;23379;51.554;6.736;2022-07-04T09:23:30;101585.00;;;29.60
37536;BMP180;23379;51.554;6.736;2022-07-04T09:26:25;101579.00;;;29.90
37536;BMP180;23379;51.554;6.736;2022-07-04T09:28:55;101545.00;;;29.20
37536;BMP180;23379;51.554;6.736;2022-07-04T09:31:26;101587.00;;;29.30
37536;BMP180;23379;51.554;6.736;2022-07-04T09:33:59;101577.00;;;29.90
37536;BMP180;23379;51.554;6.736;2022-07-04T09:36:27;101577.00;;;28.90
37536;BMP180;23379;51.554;6.736;2022-07-04T09:39:11;101585.00;;;29.90
37536;BMP180;23379;51.554;6.736;2022-07-04T09:42:01;101584.00;;;29.00
37536;BMP180;23379;51.554;6.736;2022-07-04T09:46:59;101593.00;;;29.80
37536;BMP180;23379;51.554;6.736;2022-07-04T09:49:24;101587.00;;;29.30
37536;BMP180;23379;51.554;6.736;2022-07-04T09:51:52;101583.00;;;29.10
37536;BMP180;23379;51.554;6.736;2022-07-04T09:54:26;101589.00;;;30.20
37536;BMP180;23379;51.554;6.736;2022-07-04T09:56:56;101594.00;;;29.70
37536;BMP180;23379;51.554;6.736;2022-07-04T09:59:22;101596.00;;;29.10
37536;BMP180;23379;51.554;6.736;2022-07-04T10:01:48;101586.00;;;28.80
37536;BMP180;23379;51.554;6.736;2022-07-04T10:04:14;101588.00;;;29.30
37536;BMP180;23379;51.554;6.736;2022-07-04T10:06:41;101581.00;;;29.90
37536;BMP180;23379;51.554;6.736;2022-07-04T10:09:09;101573.00;;;31.00
37536;BMP180;23379;51.554;6.736;2022-07-04T10:11:35;101592.00;;;30.90
37536;BMP180;23379;51.554;6.736;2022-07-04T10:14:03;101600.00;;;30.60
37536;BMP180;23379;51.554;6.736;2022-07-04T10:16:30;101594.00;;;30.10
37536;BMP180;23379;51.554;6.736;2022-07-04T10:18:56;101590.00;;;29.30
37536;BMP180;23379;51.554;6.736;2022-07-04T10:21:22;101575.00;;;29.80
37536;BMP180;23379;51.554;6.736;2022-07-04T10:23:49;101595.00;;;30.20
37536;BMP180;23379;51.554;6.736;2022-07-04T10:26:18;101584.00;;;28.30
37536;BMP180;23379;51.554;6.736;2022-07-04T10:28:45;101568.00;;;29.60
37536;BMP180;23379;51.554;6.736;2022-07-04T10:31:13;101577.00;;;30.70
37536;BMP180;23379;51.554;6.736;2022-07-04T10:33:40;101562.00;;;29.60
37536;BMP180;23379;51.554;6.736;2022-07-04T10:36:22;101576.00;;;28.10
37536;BMP180;23379;51.554;6.736;2022-07-04T10:41:16;101556.00;;;30.80
37536;BMP180;23379;51.554;6.736;2022-07-04T10:49:01;101568.00;;;30.70
37536;BMP180;23379;51.554;6.736;2022-07-04T10:51:46;101563.00;;;29.10
37536;BMP180;23379;51.554;6.736;2022-07-04T10:54:28;101542.00;;;27.90
37536;BMP180;23379;51.554;6.736;2022-07-04T10:57:16;101557.00;;;27.20
37536;BMP180;23379;51.554;6.736;2022-07-04T11:13:06;101550.00;;;28.00
37536;BMP180;23379;51.554;6.736;2022-07-04T11:20:29;101528.00;;;30.50
37536;BMP180;23379;51.554;6.736;2022-07-04T11:23:13;101525.00;;;30.50
37536;BMP180;23379;51.554;6.736;2022-07-04T11:25:40;101528.00;;;29.10
37536;BMP180;23379;51.554;6.736;2022-07-04T11:28:27;101518.00;;;30.50
37536;BMP180;23379;51.554;6.736;2022-07-04T11:30:56;101520.00;;;30.30
37536;BMP180;23379;51.554;6.736;2022-07-04T11:33:24;101528.00;;;30.40
37536;BMP180;23379;51.554;6.736;2022-07-04T11:41:20;101512.00;;;30.10
37536;BMP180;23379;51.554;6.736;2022-07-04T11:44:09;101514.00;;;31.10
37536;BMP180;23379;51.554;6.736;2022-07-04T11:47:12;101517.00;;;31.50
37536;BMP180;23379;51.554;6.736;2022-07-04T11:49:54;101508.00;;;29.30
37536;BMP180;23379;51.554;6.736;2022-07-04T11:52:38;101507.00;;;30.10
37536;BMP180;23379;51.554;6.736;2022-07-04T11:55:08;101521.00;;;30.40
37536;BMP180;23379;51.554;6.736;2022-07-04T11:57:36;101524.00;;;31.40
37536;BMP180;23379;51.554;6.736;2022-07-04T12:02:29;101511.00;;;32.60
37536;BMP180;23379;51.554;6.736;2022-07-04T12:04:55;101532.00;;;33.20
37536;BMP180;23379;51.554;6.736;2022-07-04T12:07:24;101525.00;;;33.60
37536;BMP180;23379;51.554;6.736;2022-07-04T12:09:51;101511.00;;;33.00
37536;BMP180;23379;51.554;6.736;2022-07-04T12:12:16;101508.00;;;34.10
37536;BMP180;23379;51.554;6.736;2022-07-04T12:15:06;101521.00;;;32.80
37536;BMP180;23379;51.554;6.736;2022-07-04T12:17:34;101522.00;;;33.20
37536;BMP180;23379;51.554;6.736;2022-07-04T12:20:03;101524.00;;;32.70
37536;BMP180;23379;51.554;6.736;2022-07-04T12:22:37;101512.00;;;32.90
37536;BMP180;23379;51.554;6.736;2022-07-04T12:25:06;101520.00;;;31.90
37536;BMP180;23379;51.554;6.736;2022-07-04T12:27:33;101510.00;;;31.00
37536;BMP180;23379;51.554;6.736;2022-07-04T12:29:59;101501.00;;;31.40
37536;BMP180;23379;51.554;6.736;2022-07-04T12:32:44;101517.00;;;33.70
37536;BMP180;23379;51.554;6.736;2022-07-04T12:35:09;101510.00;;;34.00
37536;BMP180;23379;51.554;6.736;2022-07-04T12:37:35;101496.00;;;32.00
37536;BMP180;23379;51.554;6.736;2022-07-04T12:40:07;101505.00;;;34.90
37536;BMP180;23379;51.554;6.736;2022-07-04T12:42:32;101498.00;;;34.50
37536;BMP180;23379;51.554;6.736;2022-07-04T12:45:05;101491.00;;;33.80
37536;BMP180;23379;51.554;6.736;2022-07-04T12:47:31;101494.00;;;32.50
37536;BMP180;23379;51.554;6.736;2022-07-04T12:49:57;101487.00;;;32.70
37536;BMP180;23379;51.554;6.736;2022-07-04T12:52:26;101497.00;;;32.80
37536;BMP180;23379;51.554;6.736;2022-07-04T12:55:06;101496.00;;;33.00
37536;BMP180;23379;51.554;6.736;2022-07-04T12:57:34;101494.00;;;35.40
37536;BMP180;23379;51.554;6.736;2022-07-04T12:59:59;101494.00;;;33.70
37536;BMP180;23379;51.554;6.736;2022-07-04T13:02:25;101478.00;;;31.10
37536;BMP180;23379;51.554;6.736;2022-07-04T13:04:50;101484.00;;;31.00
37536;BMP180;23379;51.554;6.736;2022-07-04T13:07:17;101466.00;;;30.90
37536;BMP180;23379;51.554;6.736;2022-07-04T13:09:43;101490.00;;;30.10
37536;BMP180;23379;51.554;6.736;2022-07-04T13:12:10;101483.00;;;30.00
37536;BMP180;23379;51.554;6.736;2022-07-04T13:14:55;101483.00;;;29.50
37536;BMP180;23379;51.554;6.736;2022-07-04T13:17:21;101466.00;;;30.20
37536;BMP180;23379;51.554;6.736;2022-07-04T13:19:47;101479.00;;;31.50
37536;BMP180;23379;51.554;6.736;2022-07-04T13:22:13;101485.00;;;32.70
37536;BMP180;23379;51.554;6.736;2022-07-04T13:24:39;101485.00;;;32.90
37536;BMP180;23379;51.554;6.736;2022-07-04T13:27:04;101462.00;;;31.00
37536;BMP180;23379;51.554;6.736;2022-07-04T13:29:30;101471.00;;;30.40
37536;BMP180;23379;51.554;6.736;2022-07-04T13:31:55;101475.00;;;29.40
37536;BMP180;23379;51.554;6.736;2022-07-04T13:34:21;101474.00;;;28.00
37536;BMP180;23379;51.554;6.736;2022-07-04T13:36:46;101467.00;;;27.80
37536;BMP180;23379;51.554;6.736;2022-07-04T13:39:12;101476.00;;;28.10
37536;BMP180;23379;51.554;6.736;2022-07-04T13:41:37;101471.00;;;27.80
37536;BMP180;23379;51.554;6.736;2022-07-04T13:44:05;101471.00;;;27.00
37536;BMP180;23379;51.554;6.736;2022-07-04T13:46:31;101497.00;;;27.30
37536;BMP180;23379;51.554;6.736;2022-07-04T13:49:02;101483.00;;;27.20
37536;BMP180;23379;51.554;6.736;2022-07-04T13:51:27;101474.00;;;27.20
37536;BMP180;23379;51.554;6.736;2022-07-04T13:53:53;101477.00;;;26.70
37536;BMP180;23379;51.554;6.736;2022-07-04T13:56:18;101474.00;;;26.40
37536;BMP180;23379;51.554;6.736;2022-07-04T13:58:44;101466.00;;;26.50
37536;BMP180;23379;51.554;6.736;2022-07-04T14:01:10;101468.00;;;26.60
37536;BMP180;23379;51.554;6.736;2022-07-04T14:03:36;101468.00;;;26.90
37536;BMP180;23379;51.554;6.736;2022-07-04T14:06:01;101484.00;;;27.00
37536;BMP180;23379;51.554;6.736;2022-07-04T14:08:27;101465.00;;;26.80
37536;BMP180;23379;51.554;6.736;2022-07-04T14:10:52;101478.00;;;26.70
37536;BMP180;23379;51.554;6.736;2022-07-04T14:13:18;101481.00;;;27.90
37536;BMP180;23379;51.554;6.736;2022-07-04T14:15:43;101456.00;;;27.10
37536;BMP180;23379;51.554;6.736;2022-07-04T14:18:09;101447.00;;;27.30
37536;BMP180;23379;51.554;6.736;2022-07-04T14:20:41;101457.00;;;27.90
37536;BMP180;23379;51.554;6.736;2022-07-04T14:23:07;101459.00;;;27.00
37536;BMP180;23379;51.554;6.736;2022-07-04T14:25:33;101454.00;;;27.00
37536;BMP180;23379;51.554;6.736;2022-07-04T14:27:58;101422.00;;;27.40
37536;BMP180;23379;51.554;6.736;2022-07-04T14:30:23;101425.00;;;26.90
37536;BMP180;23379;51.554;6.736;2022-07-04T14:32:49;101467.00;;;26.60
37536;BMP180;23379;51.554;6.736;2022-07-04T14:35:16;101440.00;;;26.40